createdAt,value
2023-02-20T00:01:55.494Z,84.71
2023-02-20T00:04:24.101Z,84.64
2023-02-20T00:06:51.986Z,84.68
2023-02-20T00:09:20.021Z,84.58
2023-02-20T00:11:47.795Z,84.45
2023-02-20T00:14:15.964Z,84.22
2023-02-20T00:16:47.692Z,84.26
2023-02-20T00:19:16.033Z,84.18
2023-02-20T00:21:48.286Z,84.35
2023-02-20T00:24:17.453Z,84.36
2023-02-20T00:26:52.346Z,84.29
2023-02-20T00:29:23.783Z,84.25
2023-02-20T00:31:57.814Z,84.26
2023-02-20T00:34:29.327Z,84.19
2023-02-20T00:36:57.352Z,84.08
2023-02-20T00:39:25.176Z,84.03
2023-02-20T00:41:53.020Z,84.18
2023-02-20T00:44:20.805Z,83.95
2023-02-20T00:46:48.718Z,83.86
2023-02-20T00:49:17.061Z,83.88
2023-02-20T00:51:48.890Z,83.78
2023-02-20T00:54:17.192Z,83.75
2023-02-20T00:56:45.136Z,83.71
2023-02-20T00:59:13.180Z,83.80
2023-02-20T01:01:42.213Z,83.87
2023-02-20T01:04:10.112Z,83.84
2023-02-20T01:06:38.031Z,83.93
2023-02-20T01:09:05.997Z,83.96
2023-02-20T01:11:33.840Z,83.91
2023-02-20T01:14:01.690Z,83.87
2023-02-20T01:16:31.270Z,83.84
2023-02-20T01:18:59.443Z,83.74
2023-02-20T01:21:27.221Z,83.81
2023-02-20T01:23:55.036Z,83.86
2023-02-20T01:26:22.982Z,83.77
2023-02-20T01:28:51.653Z,83.95
2023-02-20T01:31:19.609Z,84.07
2023-02-20T01:33:47.638Z,84.10
2023-02-20T01:36:15.569Z,84.05
2023-02-20T01:38:43.740Z,84.02
2023-02-20T01:41:12.509Z,84.14
2023-02-20T01:43:41.720Z,84.09
2023-02-20T01:46:28.029Z,84.08
2023-02-20T01:49:14.769Z,84.12
2023-02-20T01:51:48.636Z,84.19
2023-02-20T01:54:21.116Z,84.25
2023-02-20T01:56:50.202Z,84.21
2023-02-20T01:59:21.531Z,84.21
2023-02-20T02:01:50.458Z,84.29
2023-02-20T02:04:18.754Z,84.42
2023-02-20T02:06:52.566Z,84.35
2023-02-20T02:09:52.940Z,84.38
2023-02-20T02:12:21.970Z,84.54
2023-02-20T02:14:49.780Z,84.47
2023-02-20T02:17:51.882Z,84.62
2023-02-20T02:20:50.346Z,84.58
2023-02-20T02:23:56.069Z,84.62
2023-02-20T02:26:47.518Z,84.75
2023-02-20T02:30:01.593Z,84.78
2023-02-20T02:32:49.059Z,84.71
2023-02-20T02:35:31.804Z,84.83
2023-02-20T02:38:27.600Z,84.98
2023-02-20T02:41:08.891Z,85.00
2023-02-20T02:43:50.093Z,85.23
2023-02-20T02:46:38.796Z,85.26
2023-02-20T02:49:58.928Z,85.17
2023-02-20T02:52:47.906Z,85.12
2023-02-20T02:55:29.961Z,85.04
2023-02-20T02:57:58.011Z,84.94
2023-02-20T03:00:31.742Z,85.12
2023-02-20T03:03:12.274Z,85.16
2023-02-20T03:06:07.925Z,85.08
2023-02-20T03:08:45.716Z,85.09
2023-02-20T03:11:21.268Z,85.20
2023-02-20T03:14:21.641Z,85.23
2023-02-20T03:17:05.778Z,85.54
2023-02-20T03:20:02.901Z,85.43
2023-02-20T03:22:53.752Z,85.54
2023-02-20T03:25:50.440Z,85.54
2023-02-20T03:28:35.163Z,85.47
2023-02-20T03:31:17.767Z,85.56
2023-02-20T03:34:11.145Z,85.51
2023-02-20T03:37:19.199Z,85.57
2023-02-20T03:40:17.042Z,85.49
2023-02-20T03:43:10.337Z,85.67
2023-02-20T03:45:42.892Z,85.68
2023-02-20T03:48:37.119Z,85.68
2023-02-20T03:51:05.563Z,85.68
2023-02-20T03:53:41.338Z,85.81
2023-02-20T03:56:16.842Z,86.01
2023-02-20T03:58:54.191Z,86.06
2023-02-20T04:01:26.922Z,86.08
2023-02-20T04:03:58.200Z,86.16
2023-02-20T04:06:32.494Z,86.15
2023-02-20T04:09:14.340Z,86.44
2023-02-20T04:11:49.910Z,86.52
2023-02-20T04:14:23.544Z,86.51
2023-02-20T04:17:01.671Z,86.81
2023-02-20T04:19:30.994Z,86.93
2023-02-20T04:22:04.376Z,87.07
2023-02-20T04:25:01.455Z,86.80
2023-02-20T04:27:32.386Z,86.78
2023-02-20T04:30:00.955Z,86.84
2023-02-20T04:32:28.831Z,86.91
2023-02-20T04:34:57.624Z,87.24
2023-02-20T04:37:27.498Z,87.15
2023-02-20T04:39:55.968Z,87.21
2023-02-20T04:42:23.842Z,87.24
2023-02-20T04:44:51.989Z,87.48
2023-02-20T04:47:20.028Z,87.60
2023-02-20T04:49:47.996Z,87.44
2023-02-20T04:52:20.116Z,87.77
2023-02-20T04:54:49.483Z,87.81
2023-02-20T04:57:19.542Z,87.75
2023-02-20T04:59:47.509Z,87.80
2023-02-20T05:02:15.764Z,87.83
2023-02-20T05:04:43.614Z,87.75
2023-02-20T05:07:11.508Z,87.75
2023-02-20T05:09:42.701Z,87.72
2023-02-20T05:12:10.524Z,87.80
2023-02-20T05:14:38.287Z,87.77
2023-02-20T05:17:06.188Z,87.79
2023-02-20T05:19:33.997Z,87.88
2023-02-20T05:22:19.888Z,88.12
2023-02-20T05:24:50.877Z,87.98
2023-02-20T05:27:22.608Z,88.23
2023-02-20T05:29:54.584Z,88.31
2023-02-20T05:32:26.540Z,88.21
2023-02-20T05:34:55.514Z,88.25
2023-02-20T05:37:26.817Z,88.09
2023-02-20T05:39:56.238Z,88.18
2023-02-20T05:42:24.162Z,88.07
2023-02-20T05:44:51.970Z,87.83
2023-02-20T05:47:19.825Z,87.81
2023-02-20T05:49:47.720Z,87.85
2023-02-20T05:52:15.563Z,87.69
2023-02-20T05:54:46.738Z,87.60
2023-02-20T05:57:15.868Z,87.51
2023-02-20T05:59:43.762Z,87.61
2023-02-20T06:02:11.565Z,87.53
2023-02-20T06:04:39.370Z,87.46
2023-02-20T06:07:10.377Z,87.31
2023-02-20T06:09:43.555Z,87.29
2023-02-20T06:12:12.281Z,87.19
2023-02-20T06:14:40.324Z,87.12
2023-02-20T06:17:08.212Z,87.07
2023-02-20T06:19:36.072Z,87.11
2023-02-20T06:22:04.239Z,87.02
2023-02-20T06:24:32.229Z,87.07
2023-02-20T06:27:01.158Z,87.24
2023-02-20T06:29:29.288Z,87.27
2023-02-20T06:32:00.495Z,87.26
2023-02-20T06:34:31.665Z,87.13
2023-02-20T06:37:04.853Z,87.08
2023-02-20T06:39:33.484Z,86.96
2023-02-20T06:42:01.323Z,86.90
2023-02-20T06:44:29.252Z,86.84
2023-02-20T06:46:57.073Z,86.72
2023-02-20T06:49:25.175Z,86.63
2023-02-20T06:51:54.662Z,86.62
2023-02-20T06:54:22.693Z,86.57
2023-02-20T06:56:51.154Z,86.49
2023-02-20T06:59:19.757Z,86.54
2023-02-20T07:01:47.583Z,86.58
2023-02-20T07:04:26.579Z,86.57
2023-02-20T07:06:56.243Z,86.54
2023-02-20T07:09:25.250Z,86.43
2023-02-20T07:11:53.890Z,86.42
2023-02-20T07:14:22.752Z,86.41
2023-02-20T07:16:50.827Z,86.40
2023-02-20T07:19:18.718Z,86.47
2023-02-20T07:21:47.377Z,86.54
2023-02-20T07:24:15.270Z,86.48
2023-02-20T07:26:43.138Z,86.40
2023-02-20T07:29:13.773Z,86.42
2023-02-20T07:31:41.870Z,86.42
2023-02-20T07:34:10.074Z,86.34
2023-02-20T07:36:38.485Z,86.36
2023-02-20T07:39:09.479Z,86.34
2023-02-20T07:41:37.272Z,86.31
2023-02-20T07:44:07.486Z,86.38
2023-02-20T07:46:35.477Z,86.47
2023-02-20T07:49:05.288Z,86.34
2023-02-20T07:51:33.544Z,86.27
2023-02-20T07:54:01.979Z,86.19
2023-02-20T07:56:30.840Z,86.14
2023-02-20T07:59:00.738Z,86.04
2023-02-20T08:01:29.982Z,86.03
2023-02-20T08:03:57.771Z,85.99
2023-02-20T08:06:25.609Z,85.91
2023-02-20T08:08:53.452Z,85.79
2023-02-20T08:11:23.351Z,85.70
2023-02-20T08:13:55.516Z,85.59
2023-02-20T08:16:23.532Z,85.46
2023-02-20T08:18:51.532Z,85.23
2023-02-20T08:21:20.210Z,85.11
2023-02-20T08:23:48.829Z,84.90
2023-02-20T08:26:16.725Z,84.62
2023-02-20T08:28:46.374Z,84.53
2023-02-20T08:31:26.206Z,84.48
2023-02-20T08:33:58.903Z,84.37
2023-02-20T08:36:26.752Z,84.43
2023-02-20T08:38:55.056Z,84.33
2023-02-20T08:41:22.971Z,84.27
2023-02-20T08:43:50.977Z,84.26
2023-02-20T08:46:19.314Z,84.06
2023-02-20T08:48:47.459Z,84.06
2023-02-20T08:51:20.452Z,83.98
2023-02-20T08:53:48.437Z,83.86
2023-02-20T08:56:20.422Z,83.82
2023-02-20T08:58:48.464Z,83.84
2023-02-20T09:01:16.325Z,83.95
2023-02-20T09:03:44.181Z,83.90
2023-02-20T09:06:12.476Z,83.77
2023-02-20T09:08:40.528Z,83.61
2023-02-20T09:11:10.113Z,83.57
2023-02-20T09:13:49.511Z,83.47
2023-02-20T09:16:25.055Z,83.41
2023-02-20T09:18:57.388Z,83.31
2023-02-20T09:21:25.546Z,83.14
2023-02-20T09:23:53.344Z,82.97
2023-02-20T09:26:21.133Z,82.91
2023-02-20T09:28:48.965Z,82.86
2023-02-20T09:31:16.861Z,82.79
2023-02-20T09:33:51.190Z,82.78
2023-02-20T09:36:19.411Z,82.65
2023-02-20T09:38:47.525Z,82.49
2023-02-20T09:42:02.363Z,82.54
2023-02-20T09:44:41.481Z,82.23
2023-02-20T09:47:53.287Z,82.16
2023-02-20T09:50:36.161Z,81.84
2023-02-20T09:53:21.403Z,81.66
2023-02-20T09:55:51.135Z,81.28
2023-02-20T09:58:35.756Z,80.93
2023-02-20T10:01:04.896Z,80.67
2023-02-20T10:03:47.716Z,80.32
2023-02-20T10:06:19.943Z,80.45
2023-02-20T10:08:50.331Z,80.30
2023-02-20T10:11:46.580Z,79.68
2023-02-20T10:14:36.437Z,79.33
2023-02-20T10:17:27.472Z,79.23
2023-02-20T10:20:10.001Z,79.10
2023-02-20T10:23:23.368Z,78.92
2023-02-20T10:25:59.578Z,78.60
2023-02-20T10:28:28.154Z,77.96
2023-02-20T10:31:05.869Z,78.13
2023-02-20T10:33:49.092Z,77.87
2023-02-20T10:36:26.712Z,77.93
2023-02-20T10:39:19.162Z,77.63
2023-02-20T10:42:12.775Z,77.27
2023-02-20T10:45:09.923Z,77.36
2023-02-20T10:48:04.186Z,77.15
2023-02-20T10:50:53.012Z,77.19
2023-02-20T10:53:35.609Z,76.98
2023-02-20T10:56:20.566Z,77.13
2023-02-20T10:59:00.600Z,77.30
2023-02-20T11:01:29.277Z,76.73
2023-02-20T11:04:24.137Z,76.87
2023-02-20T11:07:15.974Z,76.91
2023-02-20T11:09:43.873Z,76.37
2023-02-20T11:12:48.613Z,76.59
2023-02-20T11:15:22.721Z,76.62
2023-02-20T11:17:54.348Z,76.03
2023-02-20T11:20:46.257Z,76.03
2023-02-20T11:23:39.025Z,75.64
2023-02-20T11:26:29.484Z,75.89
2023-02-20T11:29:17.708Z,75.84
2023-02-20T11:31:47.922Z,76.02
2023-02-20T11:34:26.543Z,76.20
2023-02-20T11:37:05.760Z,75.91
2023-02-20T11:39:34.407Z,75.61
2023-02-20T11:42:13.231Z,75.24
2023-02-20T11:44:41.170Z,74.37
2023-02-20T11:47:30.392Z,74.29
2023-02-20T11:50:20.981Z,73.95
2023-02-20T11:53:05.416Z,73.61
2023-02-20T11:55:34.991Z,73.41
2023-02-20T11:58:03.447Z,73.67
2023-02-20T12:00:48.003Z,72.52
2023-02-20T12:03:28.517Z,72.26
2023-02-20T12:05:59.209Z,71.79
2023-02-20T12:08:55.238Z,71.87
2023-02-20T12:11:28.220Z,72.44
2023-02-20T12:14:00.796Z,71.69
2023-02-20T12:16:49.890Z,72.25
2023-02-20T12:20:00.488Z,72.18
2023-02-20T12:22:31.173Z,71.91
2023-02-20T12:25:27.052Z,72.04
2023-02-20T12:28:09.350Z,71.85
2023-02-20T12:31:10.782Z,71.54
2023-02-20T12:34:07.536Z,71.63
2023-02-20T12:36:57.893Z,72.06
2023-02-20T12:40:01.383Z,71.90
2023-02-20T12:42:50.535Z,71.80
2023-02-20T12:45:27.647Z,71.55
2023-02-20T12:48:39.027Z,71.66
2023-02-20T12:51:27.974Z,71.79
2023-02-20T12:54:31.042Z,71.88
2023-02-20T12:57:06.542Z,71.86
2023-02-20T12:59:54.023Z,71.89
2023-02-20T13:02:42.395Z,71.62
2023-02-20T13:05:19.604Z,71.64
2023-02-20T13:07:53.747Z,72.07
2023-02-20T13:10:30.202Z,72.51
2023-02-20T13:12:59.684Z,72.51
2023-02-20T13:15:49.224Z,72.70
2023-02-20T13:18:49.299Z,72.77
2023-02-20T13:21:24.075Z,72.37
2023-02-20T13:23:53.314Z,72.39
2023-02-20T13:26:27.297Z,72.12
2023-02-20T13:28:55.233Z,72.41
2023-02-20T13:31:43.165Z,72.31
2023-02-20T13:34:11.091Z,72.26
2023-02-20T13:36:43.494Z,72.00
2023-02-20T13:39:20.207Z,71.84
2023-02-20T13:41:54.318Z,72.18
2023-02-20T13:44:28.299Z,72.25
2023-02-20T13:47:04.795Z,72.79
2023-02-20T13:49:44.600Z,73.11
2023-02-20T13:52:40.049Z,73.45
2023-02-20T13:55:10.936Z,73.51
2023-02-20T13:57:44.585Z,73.22
2023-02-20T14:00:37.431Z,73.02
2023-02-20T14:03:26.476Z,73.29
2023-02-20T14:06:14.210Z,73.21
2023-02-20T14:08:46.593Z,73.17
2023-02-20T14:11:33.823Z,72.99
2023-02-20T14:14:11.666Z,73.24
2023-02-20T14:16:44.426Z,72.83
2023-02-20T14:19:24.160Z,72.66
2023-02-20T14:21:52.334Z,72.46
2023-02-20T14:24:29.656Z,72.74
2023-02-20T14:26:57.618Z,72.86
2023-02-20T14:29:33.502Z,72.37
2023-02-20T14:32:03.767Z,72.65
2023-02-20T14:35:34.692Z,72.60
2023-02-20T14:38:40.264Z,72.36
2023-02-20T14:41:18.961Z,72.27
2023-02-20T14:43:57.990Z,72.45
2023-02-20T14:46:35.262Z,72.55
2023-02-20T14:49:10.304Z,72.96
2023-02-20T14:51:38.180Z,73.34
2023-02-20T14:54:29.891Z,73.41
2023-02-20T14:56:57.759Z,73.29
2023-02-20T14:59:38.343Z,73.38
2023-02-20T15:02:06.159Z,73.09
2023-02-20T15:04:34.493Z,73.00
2023-02-20T15:07:07.686Z,73.07
2023-02-20T15:09:40.436Z,73.16
2023-02-20T15:12:20.030Z,73.46
2023-02-20T15:14:57.153Z,73.65
2023-02-20T15:17:32.438Z,73.69
2023-02-20T15:20:01.468Z,73.71
2023-02-20T15:22:40.760Z,73.69
2023-02-20T15:25:31.068Z,73.78
2023-02-20T15:28:18.841Z,73.75
2023-02-20T15:31:11.307Z,73.79
2023-02-20T15:33:54.465Z,73.72
2023-02-20T15:36:26.551Z,73.63
2023-02-20T15:38:56.550Z,73.61
2023-02-20T15:41:24.817Z,73.58
2023-02-20T15:43:52.909Z,73.35
2023-02-20T15:46:21.157Z,73.24
2023-02-20T15:48:49.140Z,73.22
2023-02-20T15:51:23.124Z,73.28
2023-02-20T15:53:53.854Z,73.08
2023-02-20T15:56:22.103Z,73.18
2023-02-20T15:58:50.955Z,73.06
2023-02-20T16:01:19.025Z,73.28
2023-02-20T16:03:54.703Z,73.34
2023-02-20T16:06:24.316Z,73.31
2023-02-20T16:08:53.897Z,73.48
2023-02-20T16:11:36.952Z,73.69
2023-02-20T16:14:05.359Z,73.74
2023-02-20T16:16:39.011Z,73.74
2023-02-20T16:19:24.113Z,73.76
2023-02-20T16:22:00.231Z,74.00
2023-02-20T16:24:28.218Z,74.00
2023-02-20T16:26:56.221Z,74.21
2023-02-20T16:29:33.442Z,74.37
2023-02-20T16:32:01.561Z,74.55
2023-02-20T16:34:32.801Z,74.59
2023-02-20T16:37:02.943Z,74.79
2023-02-20T16:39:30.840Z,74.92
2023-02-20T16:41:59.420Z,74.98
2023-02-20T16:44:41.891Z,75.13
2023-02-20T16:47:17.114Z,75.17
2023-02-20T16:49:45.877Z,75.35
2023-02-20T16:52:27.071Z,75.56
2023-02-20T16:54:57.149Z,75.65
2023-02-20T16:57:26.193Z,75.86
2023-02-20T16:59:58.832Z,76.02
2023-02-20T17:02:34.528Z,76.15
2023-02-20T17:05:02.514Z,76.27
2023-02-20T17:07:31.249Z,76.50
2023-02-20T17:09:59.225Z,76.71
2023-02-20T17:12:27.861Z,76.86
2023-02-20T17:14:57.763Z,77.10
2023-02-20T17:17:26.411Z,77.39
2023-02-20T17:19:56.715Z,77.70
2023-02-20T17:22:26.640Z,78.02
2023-02-20T17:24:56.156Z,78.16
2023-02-20T17:27:24.958Z,78.34
2023-02-20T17:29:52.895Z,78.62
2023-02-20T17:32:20.846Z,78.80
2023-02-20T17:34:49.106Z,78.92
2023-02-20T17:37:16.950Z,79.23
2023-02-20T17:39:44.796Z,79.14
2023-02-20T17:42:13.235Z,79.34
2023-02-20T17:44:41.245Z,79.77
2023-02-20T17:47:10.521Z,79.93
2023-02-20T17:49:41.309Z,79.87
2023-02-20T17:52:10.962Z,79.87
2023-02-20T17:54:39.670Z,80.04
2023-02-20T17:57:07.605Z,80.13
2023-02-20T17:59:42.553Z,80.47
2023-02-20T18:02:13.106Z,80.50
2023-02-20T18:04:42.396Z,80.55
2023-02-20T18:07:12.065Z,80.66
2023-02-20T18:09:40.177Z,80.64
2023-02-20T18:12:08.593Z,80.77
2023-02-20T18:14:36.543Z,80.86
2023-02-20T18:17:04.736Z,81.00
2023-02-20T18:19:32.556Z,81.05
2023-02-20T18:22:00.390Z,81.01
2023-02-20T18:24:30.132Z,81.33
2023-02-20T18:26:58.604Z,81.30
2023-02-20T18:29:29.453Z,81.25
2023-02-20T18:31:59.089Z,81.19
2023-02-20T18:34:28.900Z,81.19
2023-02-20T18:36:57.461Z,81.21
2023-02-20T18:39:25.434Z,80.93
2023-02-20T18:41:56.965Z,80.63
2023-02-20T18:44:25.185Z,80.55
2023-02-20T18:46:53.134Z,80.62
2023-02-20T18:49:20.967Z,80.51
2023-02-20T18:51:48.845Z,80.56
2023-02-20T18:54:22.466Z,80.59
2023-02-20T18:56:51.462Z,80.66
2023-02-20T18:59:20.066Z,80.60
2023-02-20T19:01:48.044Z,80.62
2023-02-20T19:04:16.200Z,80.63
2023-02-20T19:06:44.576Z,80.61
2023-02-20T19:09:17.630Z,80.66
2023-02-20T19:11:55.616Z,80.68
2023-02-20T19:14:25.813Z,80.60
2023-02-20T19:16:58.325Z,80.58
2023-02-20T19:19:30.589Z,80.49
2023-02-20T19:21:58.948Z,80.49
2023-02-20T19:24:27.137Z,80.43
2023-02-20T19:26:55.029Z,80.32
2023-02-20T19:29:22.813Z,80.30
2023-02-20T19:31:50.770Z,80.32
2023-02-20T19:34:18.794Z,80.30
2023-02-20T19:36:46.630Z,80.31
2023-02-20T19:39:15.395Z,80.24
2023-02-20T19:41:43.201Z,80.18
2023-02-20T19:44:16.300Z,80.15
2023-02-20T19:46:44.330Z,80.16
2023-02-20T19:49:13.070Z,80.13
2023-02-20T19:51:55.459Z,80.13
2023-02-20T19:54:30.180Z,80.15
2023-02-20T19:57:01.589Z,80.17
2023-02-20T19:59:32.415Z,80.19
2023-02-20T20:02:01.593Z,80.19
2023-02-20T20:04:32.142Z,80.20
2023-02-20T20:07:02.760Z,80.12
2023-02-20T20:09:36.575Z,80.19
2023-02-20T20:12:26.563Z,80.28
2023-02-20T20:14:56.028Z,80.29
2023-02-20T20:17:24.111Z,80.41
2023-02-20T20:20:00.601Z,80.45
2023-02-20T20:22:30.665Z,80.50
2023-02-20T20:24:59.395Z,80.58
2023-02-20T20:27:27.675Z,80.56
2023-02-20T20:29:55.939Z,80.53
2023-02-20T20:32:24.578Z,80.55
2023-02-20T20:34:54.986Z,80.56
2023-02-20T20:37:25.333Z,80.51
2023-02-20T20:39:57.266Z,80.62
2023-02-20T20:42:28.138Z,80.63
2023-02-20T20:44:58.761Z,80.71
2023-02-20T20:47:30.260Z,80.70
2023-02-20T20:49:59.390Z,80.70
2023-02-20T20:52:28.387Z,80.68
2023-02-20T20:54:58.766Z,80.66
2023-02-20T20:57:30.182Z,80.77
2023-02-20T21:00:00.387Z,80.77
2023-02-20T21:02:28.812Z,80.81
2023-02-20T21:05:09.329Z,80.93
2023-02-20T21:07:39.776Z,80.94
2023-02-20T21:10:09.290Z,80.97
2023-02-20T21:12:38.824Z,80.96
2023-02-20T21:15:10.804Z,80.99
2023-02-20T21:17:40.300Z,81.09
2023-02-20T21:20:16.440Z,81.21
2023-02-20T21:22:44.686Z,81.26
2023-02-20T21:25:12.675Z,81.37
2023-02-20T21:27:40.700Z,81.39
2023-02-20T21:30:09.759Z,81.49
2023-02-20T21:32:37.781Z,81.54
2023-02-20T21:35:06.357Z,81.63
2023-02-20T21:37:34.225Z,81.67
2023-02-20T21:40:02.204Z,81.71
2023-02-20T21:42:48.740Z,81.82
2023-02-20T21:45:17.834Z,81.81
2023-02-20T21:47:46.050Z,81.74
2023-02-20T21:50:18.057Z,81.87
2023-02-20T21:52:47.268Z,81.76
2023-02-20T21:55:18.524Z,81.83
2023-02-20T21:57:46.656Z,81.70
2023-02-20T22:00:16.235Z,81.74
2023-02-20T22:02:44.172Z,81.70
2023-02-20T22:05:12.910Z,81.70
2023-02-20T22:07:59.403Z,81.70
2023-02-20T22:10:45.634Z,81.86
2023-02-20T22:13:32.220Z,81.90
2023-02-20T22:16:18.622Z,81.90
2023-02-20T22:19:05.075Z,81.96
2023-02-20T22:21:51.696Z,81.95
2023-02-20T22:24:39.158Z,81.93
2023-02-20T22:27:28.579Z,81.93
2023-02-20T22:30:15.195Z,82.02
2023-02-20T22:33:01.946Z,81.98
2023-02-20T22:35:48.731Z,81.93
2023-02-20T22:38:34.983Z,81.88
2023-02-20T22:41:21.350Z,81.90
2023-02-20T22:44:07.611Z,81.84
2023-02-20T22:46:54.316Z,81.84
2023-02-20T22:49:40.768Z,81.70
2023-02-20T22:52:27.179Z,81.63
2023-02-20T22:55:13.945Z,81.67
2023-02-20T22:58:00.657Z,81.67
2023-02-20T23:00:47.135Z,81.67
2023-02-20T23:03:33.960Z,81.70
2023-02-20T23:06:20.722Z,81.67
2023-02-20T23:09:08.589Z,81.75
2023-02-20T23:11:57.071Z,81.79
2023-02-20T23:14:44.057Z,81.80
2023-02-20T23:17:36.611Z,81.86
2023-02-20T23:20:29.085Z,81.82
2023-02-20T23:23:16.351Z,81.89
2023-02-20T23:26:02.616Z,81.91
2023-02-20T23:28:50.133Z,81.97
2023-02-20T23:31:37.615Z,82.01
2023-02-20T23:34:24.017Z,82.05
2023-02-20T23:37:11.525Z,81.99
2023-02-20T23:39:58.551Z,82.00
2023-02-20T23:42:45.101Z,81.93
2023-02-20T23:45:31.432Z,81.89
2023-02-20T23:48:17.864Z,81.85
2023-02-20T23:51:04.244Z,81.72
2023-02-20T23:53:55.968Z,81.71
2023-02-20T23:56:43.234Z,81.70
2023-02-20T23:59:31.370Z,81.73
